Time;durP1;ratioP1;P1;durP2;ratioP2;P2;SDS_P1;SDS_P2;PMS_P1;PMS_P2;Temp;Humidity;BMP_temperature;BMP_pressure;BME280_temperature;BME280_humidity;BME280_pressure;Samples;Min_cycle;Max_cycle;Signal;HPM_P1;HPM_P2
2023/05/02 00:00:48;;;;;;;5.32;4.78;;;;;;;;;;10041225;28;20049;-72
2023/05/02 00:05:41;;;;;;;7.38;5.22;;;;;;;;;;10046239;28;20056;-72
2023/05/02 00:10:35;;;;;;;6.85;5.32;;;;;;;;;;10040474;28;20551;-73
2023/05/02 00:15:32;;;;;;;6.60;6.00;;;;;;;;;;10060333;28;20061;-72
2023/05/02 00:20:25;;;;;;;5.90;5.40;;;;;;;;;;10059108;28;20398;-72
2023/05/02 00:25:20;;;;;;;7.82;5.85;;;;;;;;;;10059007;28;20521;-72
2023/05/02 00:30:14;;;;;;;6.53;5.93;;;;;;;;;;10059321;28;20049;-73
2023/05/02 00:35:08;;;;;;;5.78;5.25;;;;;;;;;;10060332;28;20056;-72
2023/05/02 00:40:03;;;;;;;5.68;5.18;;;;;;;;;;10063963;28;20057;-72
2023/05/02 00:44:56;;;;;;;5.78;5.18;;;;;;;;;;10052592;28;20053;-72
2023/05/02 00:49:50;;;;;;;5.82;5.25;;;;;;;;;;10036189;28;20057;-73
2023/05/02 00:54:44;;;;;;;6.82;5.50;;;;;;;;;;10039340;28;20061;-72
2023/05/02 00:59:37;;;;;;;7.63;5.00;;;;;;;;;;10044836;28;20053;-73
2023/05/02 01:04:38;;;;;;;6.10;5.53;;;;;;;;;;10038155;28;20050;-72
2023/05/02 01:09:48;;;;;;;7.38;6.18;;;;;;;;;;10040976;28;20054;-72
2023/05/02 01:14:45;;;;;;;6.18;5.57;;;;;;;;;;10039752;28;20050;-72
2023/05/02 01:19:44;;;;;;;6.38;5.88;;;;;;;;;;10034877;28;20076;-73
2023/05/02 01:24:55;;;;;;;5.93;5.32;;;;;;;;;;10033244;28;20045;-73
2023/05/02 01:29:50;;;;;;;5.93;5.35;;;;;;;;;;10050686;28;20517;-72
2023/05/02 01:34:45;;;;;;;5.90;5.40;;;;;;;;;;10020760;28;20080;-73
2023/05/02 01:39:39;;;;;;;6.57;5.95;;;;;;;;;;10024702;28;20508;-72
2023/05/02 01:44:35;;;;;;;6.05;5.47;;;;;;;;;;10034601;28;20056;-73
2023/05/02 01:49:30;;;;;;;6.32;5.72;;;;;;;;;;10035911;28;20050;-76
2023/05/02 01:54:24;;;;;;;6.68;6.00;;;;;;;;;;10049004;28;20084;-78
2023/05/02 01:59:19;;;;;;;6.10;5.32;;;;;;;;;;10038825;28;20062;-78
2023/05/02 02:04:15;;;;;;;5.40;5.00;;;;;;;;;;10045109;28;20082;-78
2023/05/02 02:09:08;;;;;;;7.05;5.32;;;;;;;;;;10051568;28;20099;-77
2023/05/02 02:14:05;;;;;;;5.30;4.80;;;;;;;;;;10055555;28;20084;-78
2023/05/02 02:19:05;;;;;;;7.18;4.82;;;;;;;;;;10056242;28;20091;-78
2023/05/02 02:24:02;;;;;;;5.10;4.53;;;;;;;;;;10054682;28;20080;-78
2023/05/02 02:28:55;;;;;;;5.00;4.60;;;;;;;;;;10034914;28;20054;-78
2023/05/02 02:33:48;;;;;;;4.88;4.38;;;;;;;;;;10034747;28;20459;-75
2023/05/02 02:38:42;;;;;;;5.00;4.50;;;;;;;;;;10065135;28;20500;-77
2023/05/02 02:43:56;;;;;;;7.60;4.32;;;;;;;;;;10047046;28;20132;-78
2023/05/02 02:49:02;;;;;;;4.95;4.55;;;;;;;;;;10027435;28;20148;-77
2023/05/02 02:54:02;;;;;;;4.70;4.07;;;;;;;;;;10030161;28;20049;-77
2023/05/02 02:59:18;;;;;;;4.68;4.28;;;;;;;;;;10047197;28;20489;-77
2023/05/02 03:04:12;;;;;;;6.65;4.90;;;;;;;;;;10033431;28;20054;-77
2023/05/02 03:09:06;;;;;;;4.90;4.22;;;;;;;;;;10034243;28;20497;-77
2023/05/02 03:13:59;;;;;;;3.78;3.47;;;;;;;;;;10041797;28;20085;-74
2023/05/02 03:18:53;;;;;;;4.50;4.10;;;;;;;;;;10035773;28;20058;-76
2023/05/02 03:23:47;;;;;;;4.75;4.22;;;;;;;;;;10031420;28;20168;-76
2023/05/02 03:28:40;;;;;;;4.20;3.50;;;;;;;;;;10034018;28;20050;-78
2023/05/02 03:33:33;;;;;;;4.88;4.32;;;;;;;;;;10036468;28;20509;-77
2023/05/02 03:38:29;;;;;;;3.92;3.28;;;;;;;;;;10046086;28;20046;-77
2023/05/02 03:43:27;;;;;;;4.30;3.88;;;;;;;;;;10028418;28;20062;-77
2023/05/02 03:48:21;;;;;;;3.40;3.10;;;;;;;;;;10035596;28;20056;-77
2023/05/02 03:53:15;;;;;;;3.97;3.30;;;;;;;;;;10040347;28;20050;-77
2023/05/02 03:58:16;;;;;;;4.03;3.45;;;;;;;;;;10032093;28;20053;-76
2023/05/02 04:03:10;;;;;;;8.73;3.72;;;;;;;;;;10027391;28;20050;-76
2023/05/02 04:08:06;;;;;;;3.45;2.90;;;;;;;;;;10039651;28;20054;-77
2023/05/02 04:13:01;;;;;;;3.70;3.38;;;;;;;;;;10034803;28;20049;-74
2023/05/02 04:18:00;;;;;;;3.83;3.53;;;;;;;;;;10042306;28;20100;-79
2023/05/02 04:22:54;;;;;;;5.85;5.28;;;;;;;;;;10035337;28;20054;-77
2023/05/02 04:27:48;;;;;;;5.53;5.13;;;;;;;;;;10051473;28;20081;-79
2023/05/02 04:32:44;;;;;;;5.70;5.20;;;;;;;;;;10038942;28;20049;-79
2023/05/02 04:37:38;;;;;;;4.97;4.45;;;;;;;;;;10031488;28;20061;-79
2023/05/02 04:42:32;;;;;;;5.78;5.18;;;;;;;;;;10031947;28;20674;-79
2023/05/02 04:47:46;;;;;;;5.28;4.78;;;;;;;;;;10029276;28;20058;-77
2023/05/02 04:52:39;;;;;;;5.32;4.82;;;;;;;;;;10038554;28;20062;-79
2023/05/02 04:57:33;;;;;;;5.78;5.25;;;;;;;;;;10034503;28;20076;-78
2023/05/02 05:02:28;;;;;;;5.45;4.90;;;;;;;;;;10039721;28;20050;-80
2023/05/02 05:07:24;;;;;;;4.57;4.15;;;;;;;;;;10031961;28;20046;-79
2023/05/02 05:12:19;;;;;;;5.18;4.55;;;;;;;;;;10045006;28;20038;-78
2023/05/02 05:17:13;;;;;;;4.95;4.45;;;;;;;;;;10021915;28;20520;-79
2023/05/02 05:22:07;;;;;;;8.02;4.15;;;;;;;;;;10040360;28;20542;-76
2023/05/02 05:27:00;;;;;;;5.95;4.60;;;;;;;;;;10042901;28;20473;-73
2023/05/02 05:31:53;;;;;;;4.65;4.25;;;;;;;;;;10059687;28;20492;-73
2023/05/02 05:36:47;;;;;;;5.43;4.93;;;;;;;;;;10044031;28;20063;-76
2023/05/02 05:41:42;;;;;;;7.95;7.22;;;;;;;;;;10042967;28;20119;-75
2023/05/02 05:46:36;;;;;;;9.23;8.32;;;;;;;;;;10054743;28;20118;-77
2023/05/02 05:51:32;;;;;;;10.68;9.32;;;;;;;;;;10036365;28;20504;-76
2023/05/02 05:56:26;;;;;;;10.32;8.68;;;;;;;;;;10043657;28;20140;-76
2023/05/02 06:01:31;;;;;;;9.57;8.68;;;;;;;;;;10039417;28;20058;-71
2023/05/02 06:06:26;;;;;;;6.70;6.10;;;;;;;;;;10025797;28;20046;-71
2023/05/02 06:11:19;;;;;;;7.13;5.78;;;;;;;;;;10027222;28;20133;-72
2023/05/02 06:16:13;;;;;;;7.10;6.25;;;;;;;;;;10028027;28;20045;-70
2023/05/02 06:21:06;;;;;;;5.05;4.65;;;;;;;;;;10027017;28;20136;-70
2023/05/02 06:26:00;;;;;;;7.50;5.38;;;;;;;;;;10044192;28;20046;-71
2023/05/02 06:31:01;;;;;;;5.45;4.95;;;;;;;;;;10048348;28;20484;-72
2023/05/02 06:35:54;;;;;;;5.55;5.05;;;;;;;;;;10043887;28;20061;-72
2023/05/02 06:40:48;;;;;;;5.15;4.65;;;;;;;;;;10053588;28;20057;-73
2023/05/02 06:45:41;;;;;;;4.85;4.45;;;;;;;;;;10048481;28;20419;-74
2023/05/02 06:50:35;;;;;;;5.32;4.82;;;;;;;;;;10035739;28;20406;-73
2023/05/02 06:55:29;;;;;;;5.53;4.97;;;;;;;;;;10049990;28;20060;-73
2023/05/02 07:00:23;;;;;;;5.57;4.53;;;;;;;;;;10052448;28;20501;-73
2023/05/02 07:05:16;;;;;;;4.95;4.55;;;;;;;;;;10044246;28;20493;-73
2023/05/02 07:10:11;;;;;;;6.07;4.85;;;;;;;;;;10037720;28;20496;-73
2023/05/02 07:15:09;;;;;;;4.82;4.43;;;;;;;;;;10033035;28;20437;-72
2023/05/02 07:20:03;;;;;;;5.80;4.78;;;;;;;;;;10031717;28;20049;-76
2023/05/02 07:24:59;;;;;;;5.13;4.63;;;;;;;;;;10034089;28;20056;-76
2023/05/02 07:29:54;;;;;;;5.28;4.78;;;;;;;;;;10031376;28;20058;-76
2023/05/02 07:34:48;;;;;;;5.60;5.10;;;;;;;;;;10058880;28;20053;-77
2023/05/02 07:39:41;;;;;;;5.60;5.05;;;;;;;;;;10029003;28;20057;-77
2023/05/02 07:44:34;;;;;;;6.10;5.50;;;;;;;;;;10037639;28;20045;-78
2023/05/02 07:49:30;;;;;;;4.90;4.40;;;;;;;;;;10053015;28;20058;-78
2023/05/02 07:54:25;;;;;;;5.00;4.55;;;;;;;;;;10051816;28;20050;-77
2023/05/02 07:59:17;;;;;;;4.35;3.95;;;;;;;;;;10034697;28;20191;-78
2023/05/02 08:04:11;;;;;;;4.78;4.35;;;;;;;;;;10055142;28;20516;-77
2023/05/02 08:09:05;;;;;;;5.30;4.13;;;;;;;;;;10050373;28;20046;-76
2023/05/02 08:13:58;;;;;;;5.68;4.70;;;;;;;;;;10042199;28;20068;-78
2023/05/02 08:18:52;;;;;;;6.20;4.20;;;;;;;;;;10047597;28;20068;-78
2023/05/02 08:23:46;;;;;;;5.05;4.55;;;;;;;;;;10038119;28;20050;-78
2023/05/02 08:28:39;;;;;;;4.65;4.20;;;;;;;;;;10043566;28;20065;-77
2023/05/02 08:33:31;;;;;;;5.13;4.72;;;;;;;;;;10031427;28;20058;-78
2023/05/02 08:38:25;;;;;;;5.15;4.15;;;;;;;;;;10037743;28;20046;-77
2023/05/02 08:43:18;;;;;;;4.93;3.95;;;;;;;;;;10054829;28;20049;-77
2023/05/02 08:48:15;;;;;;;5.50;4.38;;;;;;;;;;10043349;28;20054;-77
2023/05/02 08:53:10;;;;;;;8.20;5.10;;;;;;;;;;10036715;28;20080;-77
2023/05/02 08:58:04;;;;;;;6.88;4.70;;;;;;;;;;10045365;28;20484;-77
2023/05/02 09:03:11;;;;;;;4.78;4.03;;;;;;;;;;10043292;28;20045;-76
2023/05/02 09:08:06;;;;;;;4.30;3.90;;;;;;;;;;10051985;28;20053;-76
2023/05/02 09:13:35;;;;;;;4.88;4.47;;;;;;;;;;10035623;28;20050;-77
2023/05/02 09:18:30;;;;;;;5.15;4.70;;;;;;;;;;10048005;28;20053;-77
2023/05/02 09:23:43;;;;;;;4.38;3.97;;;;;;;;;;10031201;28;20413;-78
2023/05/02 09:28:42;;;;;;;5.57;5.07;;;;;;;;;;10040342;28;20076;-78
2023/05/02 09:33:36;;;;;;;4.15;3.85;;;;;;;;;;10040110;28;20497;-77
2023/05/02 09:38:30;;;;;;;4.65;4.10;;;;;;;;;;10030433;28;20100;-76
2023/05/02 09:43:23;;;;;;;4.60;4.20;;;;;;;;;;10038973;28;20069;-76
2023/05/02 09:48:16;;;;;;;4.68;4.28;;;;;;;;;;10028257;28;20476;-76
2023/05/02 09:53:10;;;;;;;4.50;4.10;;;;;;;;;;10033654;28;20137;-75
2023/05/02 09:58:05;;;;;;;5.10;4.70;;;;;;;;;;10033696;28;20141;-68
2023/05/02 10:02:59;;;;;;;6.53;4.43;;;;;;;;;;10042839;28;20132;-70
2023/05/02 10:07:53;;;;;;;5.72;5.20;;;;;;;;;;10045988;28;20071;-70
2023/05/02 10:12:48;;;;;;;5.25;4.55;;;;;;;;;;10057393;28;20512;-71
2023/05/02 10:17:43;;;;;;;6.28;5.75;;;;;;;;;;10032679;28;20132;-71
2023/05/02 10:22:37;;;;;;;6.00;5.50;;;;;;;;;;10046583;28;20061;-71
2023/05/02 10:27:31;;;;;;;4.82;4.43;;;;;;;;;;10040279;28;20077;-70
2023/05/02 10:32:28;;;;;;;6.22;5.68;;;;;;;;;;10043841;28;20041;-71
2023/05/02 10:37:23;;;;;;;6.25;5.65;;;;;;;;;;10037702;28;20057;-72
2023/05/02 10:42:17;;;;;;;5.20;4.70;;;;;;;;;;10031697;28;20100;-70
2023/05/02 10:47:22;;;;;;;4.55;3.95;;;;;;;;;;10036318;28;20156;-72
2023/05/02 10:52:26;;;;;;;4.72;4.32;;;;;;;;;;10036586;28;20420;-71
2023/05/02 10:57:20;;;;;;;4.85;4.38;;;;;;;;;;10048451;28;20125;-72
2023/05/02 11:02:23;;;;;;;3.63;3.33;;;;;;;;;;10052445;28;20045;-72
2023/05/02 11:07:17;;;;;;;4.63;4.22;;;;;;;;;;10052128;28;20052;-71
2023/05/02 11:12:49;;;;;;;5.20;4.68;;;;;;;;;;10044693;28;20076;-72
2023/05/02 11:18:01;;;;;;;5.07;4.57;;;;;;;;;;10039800;28;20058;-71
2023/05/02 11:22:57;;;;;;;5.28;4.50;;;;;;;;;;10048963;28;20053;-72
2023/05/02 11:27:50;;;;;;;5.32;4.82;;;;;;;;;;10046502;28;20056;-71
2023/05/02 11:32:52;;;;;;;5.45;5.03;;;;;;;;;;10057741;28;20052;-70
2023/05/02 11:38:00;;;;;;;6.32;5.72;;;;;;;;;;10046389;28;20393;-70
2023/05/02 11:42:57;;;;;;;5.07;4.57;;;;;;;;;;10042794;28;20054;-70
2023/05/02 11:47:51;;;;;;;6.70;6.00;;;;;;;;;;10038896;28;20099;-70
2023/05/02 11:52:45;;;;;;;7.32;6.63;;;;;;;;;;10038248;28;20556;-71
2023/05/02 11:57:38;;;;;;;5.43;4.93;;;;;;;;;;10055860;28;20068;-70
2023/05/02 12:02:42;;;;;;;5.93;5.38;;;;;;;;;;10046557;28;20049;-69
2023/05/02 12:07:39;;;;;;;5.80;5.30;;;;;;;;;;10028431;28;20054;-70
2023/05/02 12:12:32;;;;;;;6.45;5.78;;;;;;;;;;10054727;28;20079;-68
2023/05/02 12:17:25;;;;;;;5.55;5.05;;;;;;;;;;10041984;28;20518;-70
2023/05/02 12:22:19;;;;;;;5.82;5.32;;;;;;;;;;10035181;28;20092;-69
2023/05/02 12:27:13;;;;;;;6.43;5.85;;;;;;;;;;10046438;28;20677;-68
2023/05/02 12:32:07;;;;;;;6.15;5.65;;;;;;;;;;10047655;28;20049;-68
2023/05/02 12:37:02;;;;;;;5.80;5.13;;;;;;;;;;10040327;28;20452;-68
2023/05/02 12:41:56;;;;;;;5.28;4.85;;;;;;;;;;10046754;28;20049;-72
2023/05/02 12:47:01;;;;;;;6.38;5.38;;;;;;;;;;10049225;28;20531;-72
2023/05/02 12:51:55;;;;;;;6.07;4.72;;;;;;;;;;10036161;28;20521;-70
2023/05/02 12:56:51;;;;;;;12.35;11.07;;;;;;;;;;10047657;28;20144;-70
2023/05/02 13:01:43;;;;;;;7.75;7.00;;;;;;;;;;10051945;28;20073;-73
2023/05/02 13:06:36;;;;;;;5.60;5.10;;;;;;;;;;10048770;28;20505;-72
2023/05/02 13:11:31;;;;;;;5.60;4.95;;;;;;;;;;10045555;28;20050;-74
2023/05/02 13:16:24;;;;;;;4.65;4.25;;;;;;;;;;10029042;28;20053;-74
2023/05/02 13:21:19;;;;;;;5.13;4.63;;;;;;;;;;10054038;28;20109;-71
2023/05/02 13:26:12;;;;;;;5.10;4.63;;;;;;;;;;10021086;28;20552;-73
2023/05/02 13:31:06;;;;;;;5.03;4.53;;;;;;;;;;10030680;28;20049;-73
2023/05/02 13:36:00;;;;;;;3.83;3.47;;;;;;;;;;10059733;28;20119;-73
2023/05/02 13:40:54;;;;;;;5.40;4.90;;;;;;;;;;10049967;28;20084;-73
2023/05/02 13:45:47;;;;;;;7.05;4.53;;;;;;;;;;10048969;28;20481;-73
2023/05/02 13:50:41;;;;;;;3.70;3.40;;;;;;;;;;10002332;28;1482529;-75
2023/05/02 13:55:34;;;;;;;3.60;3.30;;;;;;;;;;10049842;28;20081;-73
2023/05/02 14:00:28;;;;;;;4.10;3.80;;;;;;;;;;10036888;28;20049;-73
2023/05/02 14:05:21;;;;;;;3.55;3.25;;;;;;;;;;10052416;28;20057;-74
2023/05/02 14:10:15;;;;;;;4.22;3.35;;;;;;;;;;10051755;28;20136;-74
2023/05/02 14:15:10;;;;;;;3.72;3.30;;;;;;;;;;10040244;28;20112;-78
2023/05/02 14:20:04;;;;;;;3.30;3.00;;;;;;;;;;10054450;28;20049;-75
2023/05/02 14:24:58;;;;;;;4.25;3.30;;;;;;;;;;10048963;28;20100;-74
2023/05/02 14:29:50;;;;;;;4.60;3.47;;;;;;;;;;10053260;28;20099;-74
2023/05/02 14:34:44;;;;;;;3.33;2.80;;;;;;;;;;10042283;28;20401;-73
2023/05/02 14:39:41;;;;;;;3.30;3.00;;;;;;;;;;10041134;28;20052;-72
2023/05/02 14:44:34;;;;;;;3.85;3.55;;;;;;;;;;10040745;28;20513;-74
2023/05/02 14:49:27;;;;;;;4.70;3.20;;;;;;;;;;10048437;28;20061;-72
2023/05/02 14:54:26;;;;;;;3.72;3.42;;;;;;;;;;10051080;28;20097;-73
2023/05/02 14:59:19;;;;;;;3.28;2.97;;;;;;;;;;10059476;28;20057;-71
2023/05/02 15:04:12;;;;;;;3.97;3.00;;;;;;;;;;10053548;28;20049;-71
2023/05/02 15:09:05;;;;;;;2.95;2.70;;;;;;;;;;10046248;28;20055;-69
2023/05/02 15:14:00;;;;;;;3.63;3.00;;;;;;;;;;10056771;28;20111;-72
2023/05/02 15:18:53;;;;;;;4.22;2.40;;;;;;;;;;10065540;28;20107;-75
2023/05/02 15:23:48;;;;;;;2.97;2.30;;;;;;;;;;10050252;28;20088;-69
2023/05/02 15:28:41;;;;;;;2.00;1.90;;;;;;;;;;10053356;28;20053;-76
2023/05/02 15:33:34;;;;;;;1.90;1.77;;;;;;;;;;10046100;28;20057;-75
2023/05/02 15:38:28;;;;;;;3.88;2.58;;;;;;;;;;10067198;28;20051;-73
2023/05/02 15:43:21;;;;;;;2.88;2.20;;;;;;;;;;10042083;28;20050;-75
2023/05/02 15:48:15;;;;;;;2.00;1.90;;;;;;;;;;10065397;28;20061;-76
2023/05/02 15:53:07;;;;;;;3.03;2.72;;;;;;;;;;10043585;28;20046;-74
2023/05/02 15:58:01;;;;;;;3.95;2.60;;;;;;;;;;10029435;28;20049;-76
2023/05/02 16:02:55;;;;;;;4.60;3.25;;;;;;;;;;10061354;28;20058;-75
2023/05/02 16:07:48;;;;;;;4.43;3.50;;;;;;;;;;10040008;28;20054;-76
2023/05/02 16:12:42;;;;;;;3.50;3.20;;;;;;;;;;10029464;28;20085;-75
2023/05/02 16:17:35;;;;;;;2.50;2.22;;;;;;;;;;10039211;28;20103;-75
2023/05/02 16:22:29;;;;;;;3.08;2.85;;;;;;;;;;10047010;28;20103;-76
2023/05/02 16:27:23;;;;;;;5.78;3.20;;;;;;;;;;10046944;28;20056;-79
2023/05/02 16:32:17;;;;;;;3.20;2.90;;;;;;;;;;10051427;28;20045;-79
2023/05/02 16:37:10;;;;;;;3.35;3.00;;;;;;;;;;10065497;28;20056;-79
2023/05/02 16:42:04;;;;;;;3.20;2.90;;;;;;;;;;10047813;28;20081;-79
2023/05/02 16:46:56;;;;;;;3.00;2.75;;;;;;;;;;10047822;28;20509;-80
2023/05/02 16:51:52;;;;;;;2.67;2.47;;;;;;;;;;10014390;28;20065;-78
2023/05/02 16:56:46;;;;;;;3.03;2.70;;;;;;;;;;10059688;28;20560;-81
2023/05/02 17:01:39;;;;;;;3.60;3.30;;;;;;;;;;10052033;28;20050;-77
2023/05/02 17:06:33;;;;;;;3.17;2.90;;;;;;;;;;10044787;28;20416;-74
2023/05/02 17:11:27;;;;;;;3.65;2.60;;;;;;;;;;10032795;28;20563;-73
2023/05/02 17:16:21;;;;;;;3.40;3.10;;;;;;;;;;10051554;28;20060;-80
2023/05/02 17:21:15;;;;;;;7.30;4.30;;;;;;;;;;10056993;28;20173;-79
2023/05/02 17:26:15;;;;;;;2.78;2.58;;;;;;;;;;10053170;28;20390;-76
2023/05/02 17:31:09;;;;;;;3.13;2.83;;;;;;;;;;10048039;28;20136;-76
2023/05/02 17:36:03;;;;;;;6.38;3.13;;;;;;;;;;10042110;28;20049;-78
2023/05/02 17:40:57;;;;;;;4.13;3.60;;;;;;;;;;10051100;28;20045;-78
2023/05/02 17:45:51;;;;;;;5.30;3.42;;;;;;;;;;10029974;28;20065;-79
2023/05/02 17:50:44;;;;;;;3.38;3.08;;;;;;;;;;10045218;28;20061;-78
2023/05/02 17:55:38;;;;;;;3.78;3.47;;;;;;;;;;10044763;28;20540;-79
2023/05/02 18:00:33;;;;;;;4.82;3.78;;;;;;;;;;10055956;28;20433;-72
2023/05/02 18:05:26;;;;;;;3.10;2.90;;;;;;;;;;10053405;28;20409;-71
2023/05/02 18:10:20;;;;;;;3.70;3.35;;;;;;;;;;10043712;28;20429;-68
2023/05/02 18:15:13;;;;;;;4.03;3.63;;;;;;;;;;10044052;28;20042;-70
2023/05/02 18:20:09;;;;;;;3.63;3.33;;;;;;;;;;10043132;28;20053;-73
2023/05/02 18:25:03;;;;;;;3.58;3.28;;;;;;;;;;10050214;28;20045;-71
2023/05/02 18:29:57;;;;;;;3.03;2.72;;;;;;;;;;10056924;28;20045;-71
2023/05/02 18:34:50;;;;;;;3.75;3.30;;;;;;;;;;10057385;28;20104;-74
2023/05/02 18:39:44;;;;;;;4.13;3.75;;;;;;;;;;10047948;28;20054;-68
2023/05/02 18:44:38;;;;;;;4.85;3.70;;;;;;;;;;10058488;28;20081;-75
2023/05/02 18:49:31;;;;;;;5.60;4.50;;;;;;;;;;10043734;28;20088;-78
2023/05/02 18:54:26;;;;;;;6.00;5.32;;;;;;;;;;10050599;28;20057;-73
2023/05/02 18:59:20;;;;;;;5.22;4.47;;;;;;;;;;10054881;28;20076;-74
2023/05/02 19:04:14;;;;;;;4.30;3.90;;;;;;;;;;10054689;28;20508;-72
2023/05/02 19:09:07;;;;;;;5.75;3.90;;;;;;;;;;10059277;28;20569;-71
2023/05/02 19:14:02;;;;;;;4.55;4.10;;;;;;;;;;10049123;28;20068;-72
2023/05/02 19:18:56;;;;;;;4.15;3.75;;;;;;;;;;10045799;28;20071;-76
2023/05/02 19:23:51;;;;;;;4.97;3.70;;;;;;;;;;10044626;28;20049;-72
2023/05/02 19:28:45;;;;;;;5.65;4.30;;;;;;;;;;10044503;28;20052;-78
2023/05/02 19:33:39;;;;;;;3.85;3.55;;;;;;;;;;10046635;28;20053;-73
2023/05/02 19:38:33;;;;;;;4.85;4.03;;;;;;;;;;10046545;28;20104;-75
2023/05/02 19:43:27;;;;;;;5.85;3.60;;;;;;;;;;10047691;28;20045;-68
2023/05/02 19:48:21;;;;;;;3.88;3.10;;;;;;;;;;10053749;28;20045;-68
2023/05/02 19:53:14;;;;;;;3.80;3.50;;;;;;;;;;10058381;28;20053;-69
2023/05/02 19:58:09;;;;;;;3.30;3.00;;;;;;;;;;10051614;28;20057;-68
2023/05/02 20:03:03;;;;;;;3.22;2.72;;;;;;;;;;10047235;28;20059;-68
2023/05/02 20:07:58;;;;;;;6.68;4.25;;;;;;;;;;10053409;28;20069;-68
2023/05/02 20:12:52;;;;;;;4.65;4.05;;;;;;;;;;10038583;28;20057;-72
2023/05/02 20:17:46;;;;;;;4.82;3.47;;;;;;;;;;10051335;28;20054;-72
2023/05/02 20:22:40;;;;;;;4.60;4.20;;;;;;;;;;10052410;28;20051;-75
2023/05/02 20:27:34;;;;;;;6.25;4.22;;;;;;;;;;10044032;28;20049;-74
2023/05/02 20:32:27;;;;;;;4.13;3.67;;;;;;;;;;10043342;28;20089;-74
2023/05/02 20:37:20;;;;;;;5.88;4.13;;;;;;;;;;10040854;28;20563;-74
2023/05/02 20:42:21;;;;;;;4.55;4.13;;;;;;;;;;10038039;28;20060;-74
2023/05/02 20:47:15;;;;;;;4.30;3.90;;;;;;;;;;10030083;28;20143;-74
2023/05/02 20:52:09;;;;;;;4.50;3.90;;;;;;;;;;10045644;28;20053;-73
2023/05/02 20:57:03;;;;;;;6.65;4.35;;;;;;;;;;10049078;28;20073;-73
2023/05/02 21:01:56;;;;;;;5.05;4.53;;;;;;;;;;10048612;28;20054;-73
2023/05/02 21:06:53;;;;;;;5.57;4.20;;;;;;;;;;10045199;28;20053;-71
2023/05/02 21:11:49;;;;;;;5.00;4.50;;;;;;;;;;10052875;28;20085;-72
2023/05/02 21:16:42;;;;;;;4.78;4.22;;;;;;;;;;10051323;28;20479;-72
2023/05/02 21:21:35;;;;;;;5.45;3.50;;;;;;;;;;10049348;28;20075;-73
2023/05/02 21:26:30;;;;;;;5.18;4.00;;;;;;;;;;10044670;28;20057;-72
2023/05/02 21:31:24;;;;;;;3.92;3.10;;;;;;;;;;10058325;28;20045;-72
2023/05/02 21:36:17;;;;;;;4.35;2.90;;;;;;;;;;10041139;28;20057;-73
2023/05/02 21:41:11;;;;;;;2.88;2.58;;;;;;;;;;10039689;28;20048;-74
2023/05/02 21:46:07;;;;;;;2.60;2.15;;;;;;;;;;10048160;28;20053;-73
2023/05/02 21:51:00;;;;;;;2.95;2.63;;;;;;;;;;10050338;28;20062;-73
2023/05/02 21:55:53;;;;;;;3.53;3.20;;;;;;;;;;10046134;28;20501;-72
2023/05/02 22:00:47;;;;;;;6.38;3.42;;;;;;;;;;10052954;28;20382;-70
2023/05/02 22:05:41;;;;;;;2.60;2.40;;;;;;;;;;10042218;28;20096;-71
2023/05/02 22:10:40;;;;;;;3.53;2.28;;;;;;;;;;10048805;28;20115;-71
2023/05/02 22:15:50;;;;;;;2.33;2.10;;;;;;;;;;10048887;28;20046;-70
2023/05/02 22:20:43;;;;;;;3.58;2.10;;;;;;;;;;10047208;28;20056;-70
2023/05/02 22:25:40;;;;;;;2.25;2.05;;;;;;;;;;10054268;28;20079;-72
2023/05/02 22:30:33;;;;;;;2.50;2.25;;;;;;;;;;10054519;28;20057;-72
2023/05/02 22:35:27;;;;;;;3.97;2.30;;;;;;;;;;10061780;28;20045;-72
2023/05/02 22:40:20;;;;;;;2.45;2.22;;;;;;;;;;10050738;28;20120;-73
2023/05/02 22:45:13;;;;;;;2.90;2.15;;;;;;;;;;10051679;28;20097;-71
2023/05/02 22:50:09;;;;;;;1.83;1.73;;;;;;;;;;10042550;28;20112;-72
2023/05/02 22:55:08;;;;;;;2.42;2.22;;;;;;;;;;10051627;28;20056;-71
2023/05/02 23:00:03;;;;;;;2.17;1.87;;;;;;;;;;10056020;28;20103;-71
2023/05/02 23:04:58;;;;;;;3.20;2.13;;;;;;;;;;10064480;28;20132;-71
2023/05/02 23:09:51;;;;;;;2.22;1.80;;;;;;;;;;10046594;28;20057;-72
2023/05/02 23:14:45;;;;;;;2.30;2.10;;;;;;;;;;10064514;28;20153;-71
2023/05/02 23:19:39;;;;;;;2.03;1.92;;;;;;;;;;10067317;28;20508;-71
2023/05/02 23:24:33;;;;;;;1.80;1.70;;;;;;;;;;10046977;28;20054;-70
2023/05/02 23:29:27;;;;;;;1.35;1.25;;;;;;;;;;10053330;28;20496;-70
2023/05/02 23:34:20;;;;;;;3.05;1.42;;;;;;;;;;10055970;28;20140;-71
2023/05/02 23:39:14;;;;;;;1.75;1.65;;;;;;;;;;10049968;28;20132;-71
2023/05/02 23:44:06;;;;;;;1.65;1.45;;;;;;;;;;10049546;28;20148;-71
2023/05/02 23:49:00;;;;;;;1.80;1.70;;;;;;;;;;10050988;28;20058;-70
2023/05/02 23:53:53;;;;;;;1.92;1.58;;;;;;;;;;10047785;28;20046;-70
2023/05/02 23:58:47;;;;;;;1.80;1.70;;;;;;;;;;10029521;28;20068;-71
